sensor_id;sensor_type;location;lat;lon;timestamp;temperature;humidity
20973;DHT22;10645;52.370;13.314;2022-07-04T00:00:41;20.10;99.90
20973;DHT22;10645;52.370;13.314;2022-07-04T00:03:07;20.10;99.90
20973;DHT22;10645;52.370;13.314;2022-07-04T00:05:34;20.10;99.90
20973;DHT22;10645;52.370;13.314;2022-07-04T00:08:00;20.10;99.90
20973;DHT22;10645;52.370;13.314;2022-07-04T00:10:26;20.10;99.90
20973;DHT22;10645;52.370;13.314;2022-07-04T00:12:52;20.00;99.90
20973;DHT22;10645;52.370;13.314;2022-07-04T00:15:18;20.00;99.90
20973;DHT22;10645;52.370;13.314;2022-07-04T00:17:44;19.90;99.90
20973;DHT22;10645;52.370;13.314;2022-07-04T00:20:11;19.80;99.90
20973;DHT22;10645;52.370;13.314;2022-07-04T00:22:37;19.80;99.90
20973;DHT22;10645;52.370;13.314;2022-07-04T00:25:05;19.70;99.90
20973;DHT22;10645;52.370;13.314;2022-07-04T00:27:31;19.70;99.90
20973;DHT22;10645;52.370;13.314;2022-07-04T00:29:57;19.60;99.90
20973;DHT22;10645;52.370;13.314;2022-07-04T00:32:23;19.60;99.90
20973;DHT22;10645;52.370;13.314;2022-07-04T00:34:49;19.60;99.90
20973;DHT22;10645;52.370;13.314;2022-07-04T00:37:16;19.60;99.90
20973;DHT22;10645;52.370;13.314;2022-07-04T00:39:42;19.60;99.90
20973;DHT22;10645;52.370;13.314;2022-07-04T00:42:08;19.50;99.90
20973;DHT22;10645;52.370;13.314;2022-07-04T00:44:34;19.50;99.90
20973;DHT22;10645;52.370;13.314;2022-07-04T00:47:07;19.50;99.90
20973;DHT22;10645;52.370;13.314;2022-07-04T00:49:34;19.50;99.90
20973;DHT22;10645;52.370;13.314;2022-07-04T00:52:01;19.50;99.90
20973;DHT22;10645;52.370;13.314;2022-07-04T00:54:30;19.40;99.90
20973;DHT22;10645;52.370;13.314;2022-07-04T00:56:57;19.40;99.90
20973;DHT22;10645;52.370;13.314;2022-07-04T00:59:23;19.30;99.90
20973;DHT22;10645;52.370;13.314;2022-07-04T01:01:50;19.30;99.90
20973;DHT22;10645;52.370;13.314;2022-07-04T01:04:16;19.20;99.90
20973;DHT22;10645;52.370;13.314;2022-07-04T01:06:43;19.20;99.90
20973;DHT22;10645;52.370;13.314;2022-07-04T01:09:11;19.20;99.90
20973;DHT22;10645;52.370;13.314;2022-07-04T01:11:38;19.20;99.90
20973;DHT22;10645;52.370;13.314;2022-07-04T01:14:04;19.20;99.90
20973;DHT22;10645;52.370;13.314;2022-07-04T01:16:32;19.10;99.90
20973;DHT22;10645;52.370;13.314;2022-07-04T01:18:58;19.10;99.90
20973;DHT22;10645;52.370;13.314;2022-07-04T01:21:24;19.00;99.90
20973;DHT22;10645;52.370;13.314;2022-07-04T01:23:51;18.90;99.90
20973;DHT22;10645;52.370;13.314;2022-07-04T01:26:17;18.90;99.90
20973;DHT22;10645;52.370;13.314;2022-07-04T01:28:44;18.80;99.90
20973;DHT22;10645;52.370;13.314;2022-07-04T01:31:10;18.70;99.90
20973;DHT22;10645;52.370;13.314;2022-07-04T01:33:36;18.60;99.90
20973;DHT22;10645;52.370;13.314;2022-07-04T01:36:03;18.60;99.90
20973;DHT22;10645;52.370;13.314;2022-07-04T01:38:29;18.50;99.90
20973;DHT22;10645;52.370;13.314;2022-07-04T01:40:55;18.40;99.90
20973;DHT22;10645;52.370;13.314;2022-07-04T01:43:21;18.40;99.90
20973;DHT22;10645;52.370;13.314;2022-07-04T01:45:47;18.40;99.90
20973;DHT22;10645;52.370;13.314;2022-07-04T01:48:13;18.30;99.90
20973;DHT22;10645;52.370;13.314;2022-07-04T01:50:40;18.30;99.90
20973;DHT22;10645;52.370;13.314;2022-07-04T01:53:06;18.20;99.90
20973;DHT22;10645;52.370;13.314;2022-07-04T01:55:33;18.20;99.90
20973;DHT22;10645;52.370;13.314;2022-07-04T01:57:59;18.10;99.90
20973;DHT22;10645;52.370;13.314;2022-07-04T02:00:27;18.10;99.90
20973;DHT22;10645;52.370;13.314;2022-07-04T02:03:12;18.00;99.90
20973;DHT22;10645;52.370;13.314;2022-07-04T02:05:39;18.00;99.90
20973;DHT22;10645;52.370;13.314;2022-07-04T02:08:08;18.00;99.90
20973;DHT22;10645;52.370;13.314;2022-07-04T02:10:34;17.80;99.90
20973;DHT22;10645;52.370;13.314;2022-07-04T02:13:01;17.80;99.90
20973;DHT22;10645;52.370;13.314;2022-07-04T02:15:35;17.70;99.90
20973;DHT22;10645;52.370;13.314;2022-07-04T02:18:04;17.60;99.90
20973;DHT22;10645;52.370;13.314;2022-07-04T02:20:30;17.50;99.90
20973;DHT22;10645;52.370;13.314;2022-07-04T02:22:57;17.50;99.90
20973;DHT22;10645;52.370;13.314;2022-07-04T02:25:23;17.40;99.90
20973;DHT22;10645;52.370;13.314;2022-07-04T02:27:54;17.40;99.90
20973;DHT22;10645;52.370;13.314;2022-07-04T02:30:21;17.30;99.90
20973;DHT22;10645;52.370;13.314;2022-07-04T02:32:47;17.30;99.90
20973;DHT22;10645;52.370;13.314;2022-07-04T02:35:14;17.20;99.90
20973;DHT22;10645;52.370;13.314;2022-07-04T02:37:40;17.20;99.90
20973;DHT22;10645;52.370;13.314;2022-07-04T02:40:06;17.20;99.90
20973;DHT22;10645;52.370;13.314;2022-07-04T02:42:34;17.10;99.90
20973;DHT22;10645;52.370;13.314;2022-07-04T02:45:00;17.10;99.90
20973;DHT22;10645;52.370;13.314;2022-07-04T02:47:27;17.10;99.90
20973;DHT22;10645;52.370;13.314;2022-07-04T02:49:54;17.00;99.90
20973;DHT22;10645;52.370;13.314;2022-07-04T02:52:20;17.00;99.90
20973;DHT22;10645;52.370;13.314;2022-07-04T02:54:46;17.00;99.90
20973;DHT22;10645;52.370;13.314;2022-07-04T02:57:12;16.90;99.90
20973;DHT22;10645;52.370;13.314;2022-07-04T02:59:39;16.90;99.90
20973;DHT22;10645;52.370;13.314;2022-07-04T03:02:05;16.80;99.90
20973;DHT22;10645;52.370;13.314;2022-07-04T03:04:31;16.80;99.90
20973;DHT22;10645;52.370;13.314;2022-07-04T03:06:57;16.80;99.90
20973;DHT22;10645;52.370;13.314;2022-07-04T03:09:24;16.80;99.90
20973;DHT22;10645;52.370;13.314;2022-07-04T03:11:53;16.80;99.90
20973;DHT22;10645;52.370;13.314;2022-07-04T03:14:19;16.70;99.90
20973;DHT22;10645;52.370;13.314;2022-07-04T03:16:45;16.70;99.90
20973;DHT22;10645;52.370;13.314;2022-07-04T03:19:12;16.70;99.90
20973;DHT22;10645;52.370;13.314;2022-07-04T03:21:38;16.70;99.90
20973;DHT22;10645;52.370;13.314;2022-07-04T03:24:04;16.70;99.90
20973;DHT22;10645;52.370;13.314;2022-07-04T03:26:32;16.70;99.90
20973;DHT22;10645;52.370;13.314;2022-07-04T03:28:59;16.70;99.90
20973;DHT22;10645;52.370;13.314;2022-07-04T03:31:26;16.70;99.90
20973;DHT22;10645;52.370;13.314;2022-07-04T03:33:54;16.70;99.90
20973;DHT22;10645;52.370;13.314;2022-07-04T03:36:20;16.70;99.90
20973;DHT22;10645;52.370;13.314;2022-07-04T03:38:47;16.70;99.90
20973;DHT22;10645;52.370;13.314;2022-07-04T03:41:13;16.70;99.90
20973;DHT22;10645;52.370;13.314;2022-07-04T03:43:39;16.80;99.90
20973;DHT22;10645;52.370;13.314;2022-07-04T03:46:05;16.70;99.90
20973;DHT22;10645;52.370;13.314;2022-07-04T03:48:31;16.70;99.90
20973;DHT22;10645;52.370;13.314;2022-07-04T03:50:58;16.80;99.90
20973;DHT22;10645;52.370;13.314;2022-07-04T03:53:24;16.80;99.90
20973;DHT22;10645;52.370;13.314;2022-07-04T03:55:50;16.90;99.90
20973;DHT22;10645;52.370;13.314;2022-07-04T03:58:16;16.90;99.90
20973;DHT22;10645;52.370;13.314;2022-07-04T04:00:42;17.00;99.90
20973;DHT22;10645;52.370;13.314;2022-07-04T04:03:09;17.00;99.90
20973;DHT22;10645;52.370;13.314;2022-07-04T04:05:55;17.10;99.90
20973;DHT22;10645;52.370;13.314;2022-07-04T04:08:22;17.10;99.90
20973;DHT22;10645;52.370;13.314;2022-07-04T04:10:49;17.00;99.90
20973;DHT22;10645;52.370;13.314;2022-07-04T04:13:15;17.00;99.90
20973;DHT22;10645;52.370;13.314;2022-07-04T04:15:42;17.00;99.90
20973;DHT22;10645;52.370;13.314;2022-07-04T04:18:08;17.00;99.90
20973;DHT22;10645;52.370;13.314;2022-07-04T04:20:34;17.10;99.90
20973;DHT22;10645;52.370;13.314;2022-07-04T04:23:00;17.10;99.90
20973;DHT22;10645;52.370;13.314;2022-07-04T04:25:26;17.10;99.90
20973;DHT22;10645;52.370;13.314;2022-07-04T04:27:52;17.20;99.90
20973;DHT22;10645;52.370;13.314;2022-07-04T04:30:18;17.20;99.90
20973;DHT22;10645;52.370;13.314;2022-07-04T04:32:44;17.30;99.90
20973;DHT22;10645;52.370;13.314;2022-07-04T04:35:10;17.30;99.90
20973;DHT22;10645;52.370;13.314;2022-07-04T04:37:37;17.40;99.90
20973;DHT22;10645;52.370;13.314;2022-07-04T04:40:03;17.50;99.90
20973;DHT22;10645;52.370;13.314;2022-07-04T04:42:29;17.50;99.90
20973;DHT22;10645;52.370;13.314;2022-07-04T04:44:55;17.60;99.90
20973;DHT22;10645;52.370;13.314;2022-07-04T04:47:21;17.60;99.90
20973;DHT22;10645;52.370;13.314;2022-07-04T04:49:48;17.70;99.90
20973;DHT22;10645;52.370;13.314;2022-07-04T04:52:14;17.70;99.90
20973;DHT22;10645;52.370;13.314;2022-07-04T04:54:40;17.80;99.90
20973;DHT22;10645;52.370;13.314;2022-07-04T04:57:06;17.90;99.90
20973;DHT22;10645;52.370;13.314;2022-07-04T04:59:32;18.00;99.90
20973;DHT22;10645;52.370;13.314;2022-07-04T05:01:58;18.10;99.90
20973;DHT22;10645;52.370;13.314;2022-07-04T05:04:25;18.10;99.90
20973;DHT22;10645;52.370;13.314;2022-07-04T05:06:51;18.10;99.90
20973;DHT22;10645;52.370;13.314;2022-07-04T05:09:18;18.20;99.90
20973;DHT22;10645;52.370;13.314;2022-07-04T05:11:45;18.20;99.90
20973;DHT22;10645;52.370;13.314;2022-07-04T05:14:12;18.30;99.90
20973;DHT22;10645;52.370;13.314;2022-07-04T05:16:38;18.40;99.90
20973;DHT22;10645;52.370;13.314;2022-07-04T05:19:05;18.50;99.90
20973;DHT22;10645;52.370;13.314;2022-07-04T05:21:31;18.70;99.90
20973;DHT22;10645;52.370;13.314;2022-07-04T05:23:57;18.70;99.90
20973;DHT22;10645;52.370;13.314;2022-07-04T05:26:23;18.70;99.90
20973;DHT22;10645;52.370;13.314;2022-07-04T05:28:50;18.70;99.90
20973;DHT22;10645;52.370;13.314;2022-07-04T05:31:16;18.60;99.90
20973;DHT22;10645;52.370;13.314;2022-07-04T05:33:42;18.50;99.90
20973;DHT22;10645;52.370;13.314;2022-07-04T05:36:08;18.40;99.90
20973;DHT22;10645;52.370;13.314;2022-07-04T05:38:34;18.50;99.90
20973;DHT22;10645;52.370;13.314;2022-07-04T05:41:01;18.50;99.90
20973;DHT22;10645;52.370;13.314;2022-07-04T05:43:27;18.50;99.90
20973;DHT22;10645;52.370;13.314;2022-07-04T05:45:53;18.60;99.90
20973;DHT22;10645;52.370;13.314;2022-07-04T05:48:20;18.60;99.90
20973;DHT22;10645;52.370;13.314;2022-07-04T05:50:46;18.70;99.90
20973;DHT22;10645;52.370;13.314;2022-07-04T05:53:12;18.70;99.90
20973;DHT22;10645;52.370;13.314;2022-07-04T05:55:38;18.80;99.90
20973;DHT22;10645;52.370;13.314;2022-07-04T05:58:04;18.90;99.90
20973;DHT22;10645;52.370;13.314;2022-07-04T06:00:30;19.00;99.90
20973;DHT22;10645;52.370;13.314;2022-07-04T06:02:56;19.00;99.90
20973;DHT22;10645;52.370;13.314;2022-07-04T06:05:22;19.00;99.90
20973;DHT22;10645;52.370;13.314;2022-07-04T06:07:48;19.10;99.90
20973;DHT22;10645;52.370;13.314;2022-07-04T06:10:15;19.00;99.90
20973;DHT22;10645;52.370;13.314;2022-07-04T06:12:41;19.10;99.90
20973;DHT22;10645;52.370;13.314;2022-07-04T06:15:07;19.10;99.90
20973;DHT22;10645;52.370;13.314;2022-07-04T06:17:36;19.10;99.90
20973;DHT22;10645;52.370;13.314;2022-07-04T06:20:03;19.10;99.90
20973;DHT22;10645;52.370;13.314;2022-07-04T06:22:39;19.10;99.90
20973;DHT22;10645;52.370;13.314;2022-07-04T06:25:05;19.20;99.90
20973;DHT22;10645;52.370;13.314;2022-07-04T06:27:31;19.30;99.90
20973;DHT22;10645;52.370;13.314;2022-07-04T06:29:57;19.30;99.90
20973;DHT22;10645;52.370;13.314;2022-07-04T06:32:23;19.40;99.90
20973;DHT22;10645;52.370;13.314;2022-07-04T06:34:50;19.50;99.90
20973;DHT22;10645;52.370;13.314;2022-07-04T06:37:34;19.50;99.90
20973;DHT22;10645;52.370;13.314;2022-07-04T06:40:00;19.60;99.90
20973;DHT22;10645;52.370;13.314;2022-07-04T06:42:26;19.50;99.90
20973;DHT22;10645;52.370;13.314;2022-07-04T06:44:53;19.60;99.90
20973;DHT22;10645;52.370;13.314;2022-07-04T06:47:19;19.70;99.90
20973;DHT22;10645;52.370;13.314;2022-07-04T06:49:45;19.60;99.90
20973;DHT22;10645;52.370;13.314;2022-07-04T06:52:11;19.70;99.90
20973;DHT22;10645;52.370;13.314;2022-07-04T06:54:37;19.80;99.90
20973;DHT22;10645;52.370;13.314;2022-07-04T06:57:03;19.80;99.90
20973;DHT22;10645;52.370;13.314;2022-07-04T06:59:29;19.80;99.90
20973;DHT22;10645;52.370;13.314;2022-07-04T07:01:56;19.90;99.90
20973;DHT22;10645;52.370;13.314;2022-07-04T07:04:22;19.90;99.90
20973;DHT22;10645;52.370;13.314;2022-07-04T07:06:48;20.00;99.90
20973;DHT22;10645;52.370;13.314;2022-07-04T07:09:14;20.10;99.90
20973;DHT22;10645;52.370;13.314;2022-07-04T07:11:40;20.30;99.90
20973;DHT22;10645;52.370;13.314;2022-07-04T07:14:06;20.20;99.90
20973;DHT22;10645;52.370;13.314;2022-07-04T07:16:32;20.30;99.90
20973;DHT22;10645;52.370;13.314;2022-07-04T07:18:58;20.40;99.90
20973;DHT22;10645;52.370;13.314;2022-07-04T07:21:24;20.60;99.90
20973;DHT22;10645;52.370;13.314;2022-07-04T07:23:50;20.60;99.90
20973;DHT22;10645;52.370;13.314;2022-07-04T07:26:16;20.60;99.90
20973;DHT22;10645;52.370;13.314;2022-07-04T07:28:42;20.60;99.90
20973;DHT22;10645;52.370;13.314;2022-07-04T07:31:08;20.80;99.90
20973;DHT22;10645;52.370;13.314;2022-07-04T07:33:34;21.00;99.90
20973;DHT22;10645;52.370;13.314;2022-07-04T07:36:01;21.10;99.90
20973;DHT22;10645;52.370;13.314;2022-07-04T07:38:27;21.20;99.90
20973;DHT22;10645;52.370;13.314;2022-07-04T07:40:53;21.50;99.90
20973;DHT22;10645;52.370;13.314;2022-07-04T07:43:19;21.70;99.90
20973;DHT22;10645;52.370;13.314;2022-07-04T07:45:45;22.00;99.90
20973;DHT22;10645;52.370;13.314;2022-07-04T07:48:11;22.10;99.90
20973;DHT22;10645;52.370;13.314;2022-07-04T07:50:37;22.10;99.90
20973;DHT22;10645;52.370;13.314;2022-07-04T07:53:03;22.00;99.90
20973;DHT22;10645;52.370;13.314;2022-07-04T07:55:29;21.80;99.90
20973;DHT22;10645;52.370;13.314;2022-07-04T07:57:55;21.60;99.90
20973;DHT22;10645;52.370;13.314;2022-07-04T08:00:24;21.60;99.90
20973;DHT22;10645;52.370;13.314;2022-07-04T08:02:50;21.60;99.90
20973;DHT22;10645;52.370;13.314;2022-07-04T08:05:39;21.60;99.90
20973;DHT22;10645;52.370;13.314;2022-07-04T08:08:05;21.60;99.90
20973;DHT22;10645;52.370;13.314;2022-07-04T08:10:33;21.30;99.90
20973;DHT22;10645;52.370;13.314;2022-07-04T08:12:59;21.60;99.90
20973;DHT22;10645;52.370;13.314;2022-07-04T08:15:25;21.40;99.90
20973;DHT22;10645;52.370;13.314;2022-07-04T08:17:51;21.30;99.90
20973;DHT22;10645;52.370;13.314;2022-07-04T08:20:19;21.30;99.90
20973;DHT22;10645;52.370;13.314;2022-07-04T08:22:45;21.50;99.90
20973;DHT22;10645;52.370;13.314;2022-07-04T08:25:11;21.60;99.90
20973;DHT22;10645;52.370;13.314;2022-07-04T08:27:40;21.50;99.90
20973;DHT22;10645;52.370;13.314;2022-07-04T08:30:07;21.50;99.90
20973;DHT22;10645;52.370;13.314;2022-07-04T08:32:34;21.30;99.90
20973;DHT22;10645;52.370;13.314;2022-07-04T08:35:01;21.20;99.90
20973;DHT22;10645;52.370;13.314;2022-07-04T08:37:27;21.00;99.90
20973;DHT22;10645;52.370;13.314;2022-07-04T08:39:54;21.00;99.90
20973;DHT22;10645;52.370;13.314;2022-07-04T08:42:22;20.90;99.90
20973;DHT22;10645;52.370;13.314;2022-07-04T08:44:53;21.00;99.90
20973;DHT22;10645;52.370;13.314;2022-07-04T08:47:21;21.40;99.90
20973;DHT22;10645;52.370;13.314;2022-07-04T08:49:59;21.90;99.90
20973;DHT22;10645;52.370;13.314;2022-07-04T08:52:39;22.20;99.90
20973;DHT22;10645;52.370;13.314;2022-07-04T08:55:07;22.60;99.90
20973;DHT22;10645;52.370;13.314;2022-07-04T08:57:53;22.50;99.90
20973;DHT22;10645;52.370;13.314;2022-07-04T09:00:38;22.30;99.90
20973;DHT22;10645;52.370;13.314;2022-07-04T09:03:04;22.30;99.90
20973;DHT22;10645;52.370;13.314;2022-07-04T09:05:31;22.40;99.90
20973;DHT22;10645;52.370;13.314;2022-07-04T09:07:59;22.40;99.90
20973;DHT22;10645;52.370;13.314;2022-07-04T09:10:25;22.30;98.90
20973;DHT22;10645;52.370;13.314;2022-07-04T09:12:51;22.40;99.90
20973;DHT22;10645;52.370;13.314;2022-07-04T09:15:18;22.60;99.90
20973;DHT22;10645;52.370;13.314;2022-07-04T09:17:45;22.80;99.90
20973;DHT22;10645;52.370;13.314;2022-07-04T09:20:15;23.20;99.70
20973;DHT22;10645;52.370;13.314;2022-07-04T09:22:42;23.20;98.20
20973;DHT22;10645;52.370;13.314;2022-07-04T09:25:08;22.90;97.90
20973;DHT22;10645;52.370;13.314;2022-07-04T09:27:44;22.90;97.90
20973;DHT22;10645;52.370;13.314;2022-07-04T09:30:14;23.10;99.50
20973;DHT22;10645;52.370;13.314;2022-07-04T09:35:18;23.60;96.90
20973;DHT22;10645;52.370;13.314;2022-07-04T09:37:48;23.30;95.30
20973;DHT22;10645;52.370;13.314;2022-07-04T09:40:23;23.30;96.50
20973;DHT22;10645;52.370;13.314;2022-07-04T09:42:49;23.20;96.20
20973;DHT22;10645;52.370;13.314;2022-07-04T09:45:15;23.30;96.40
20973;DHT22;10645;52.370;13.314;2022-07-04T09:47:44;23.40;95.90
20973;DHT22;10645;52.370;13.314;2022-07-04T09:50:16;23.50;95.20
20973;DHT22;10645;52.370;13.314;2022-07-04T09:52:50;23.70;95.60
20973;DHT22;10645;52.370;13.314;2022-07-04T09:55:27;23.80;94.80
20973;DHT22;10645;52.370;13.314;2022-07-04T09:57:56;23.50;94.70
20973;DHT22;10645;52.370;13.314;2022-07-04T10:00:23;23.30;95.50
20973;DHT22;10645;52.370;13.314;2022-07-04T10:02:51;23.40;94.80
20973;DHT22;10645;52.370;13.314;2022-07-04T10:05:20;23.60;94.40
20973;DHT22;10645;52.370;13.314;2022-07-04T10:07:46;23.30;94.40
20973;DHT22;10645;52.370;13.314;2022-07-04T10:12:59;23.00;95.70
20973;DHT22;10645;52.370;13.314;2022-07-04T10:15:25;23.20;95.40
20973;DHT22;10645;52.370;13.314;2022-07-04T10:17:52;23.10;95.10
20973;DHT22;10645;52.370;13.314;2022-07-04T10:20:18;23.10;95.00
20973;DHT22;10645;52.370;13.314;2022-07-04T10:22:44;22.90;95.20
20973;DHT22;10645;52.370;13.314;2022-07-04T10:25:11;22.90;94.80
20973;DHT22;10645;52.370;13.314;2022-07-04T10:27:37;23.20;94.00
20973;DHT22;10645;52.370;13.314;2022-07-04T10:30:06;23.60;93.50
20973;DHT22;10645;52.370;13.314;2022-07-04T10:32:33;23.90;93.40
20973;DHT22;10645;52.370;13.314;2022-07-04T10:35:00;23.80;93.30
20973;DHT22;10645;52.370;13.314;2022-07-04T10:38:05;23.90;93.70
20973;DHT22;10645;52.370;13.314;2022-07-04T10:40:50;23.90;93.60
20973;DHT22;10645;52.370;13.314;2022-07-04T10:51:38;23.00;92.50
20973;DHT22;10645;52.370;13.314;2022-07-04T10:54:07;23.10;93.20
20973;DHT22;10645;52.370;13.314;2022-07-04T10:56:43;23.40;92.90
20973;DHT22;10645;52.370;13.314;2022-07-04T11:01:37;23.30;93.20
20973;DHT22;10645;52.370;13.314;2022-07-04T11:04:04;23.20;93.50
20973;DHT22;10645;52.370;13.314;2022-07-04T11:09:18;23.10;92.50
20973;DHT22;10645;52.370;13.314;2022-07-04T11:12:02;23.00;92.20
20973;DHT22;10645;52.370;13.314;2022-07-04T11:14:44;23.10;93.80
20973;DHT22;10645;52.370;13.314;2022-07-04T11:17:21;23.50;93.20
20973;DHT22;10645;52.370;13.314;2022-07-04T11:19:59;23.80;92.70
20973;DHT22;10645;52.370;13.314;2022-07-04T11:22:25;24.00;91.70
20973;DHT22;10645;52.370;13.314;2022-07-04T11:24:52;24.20;91.80
20973;DHT22;10645;52.370;13.314;2022-07-04T11:27:21;24.90;92.50
20973;DHT22;10645;52.370;13.314;2022-07-04T11:29:54;25.40;92.00
20973;DHT22;10645;52.370;13.314;2022-07-04T11:32:29;25.70;90.80
20973;DHT22;10645;52.370;13.314;2022-07-04T11:34:55;26.10;90.20
20973;DHT22;10645;52.370;13.314;2022-07-04T11:37:22;26.50;90.30
20973;DHT22;10645;52.370;13.314;2022-07-04T11:39:52;26.60;90.40
20973;DHT22;10645;52.370;13.314;2022-07-04T11:42:19;26.60;86.80
20973;DHT22;10645;52.370;13.314;2022-07-04T11:45:03;26.10;86.80
20973;DHT22;10645;52.370;13.314;2022-07-04T11:47:34;26.10;88.20
20973;DHT22;10645;52.370;13.314;2022-07-04T11:50:02;25.90;86.50
20973;DHT22;10645;52.370;13.314;2022-07-04T11:52:42;26.30;89.00
20973;DHT22;10645;52.370;13.314;2022-07-04T11:55:11;26.40;84.30
20973;DHT22;10645;52.370;13.314;2022-07-04T11:57:40;26.20;86.90
20973;DHT22;10645;52.370;13.314;2022-07-04T12:00:17;25.70;86.00
20973;DHT22;10645;52.370;13.314;2022-07-04T12:02:45;25.70;86.80
20973;DHT22;10645;52.370;13.314;2022-07-04T12:05:14;25.70;85.20
20973;DHT22;10645;52.370;13.314;2022-07-04T12:07:45;25.70;88.10
20973;DHT22;10645;52.370;13.314;2022-07-04T12:10:14;24.90;85.80
20973;DHT22;10645;52.370;13.314;2022-07-04T12:13:14;24.80;88.20
20973;DHT22;10645;52.370;13.314;2022-07-04T12:15:43;24.80;89.60
20973;DHT22;10645;52.370;13.314;2022-07-04T12:18:26;25.50;89.30
20973;DHT22;10645;52.370;13.314;2022-07-04T12:21:11;26.00;85.60
20973;DHT22;10645;52.370;13.314;2022-07-04T12:23:38;25.10;84.50
20973;DHT22;10645;52.370;13.314;2022-07-04T12:26:06;25.40;85.90
20973;DHT22;10645;52.370;13.314;2022-07-04T12:28:35;25.90;85.20
20973;DHT22;10645;52.370;13.314;2022-07-04T12:31:05;26.40;84.70
20973;DHT22;10645;52.370;13.314;2022-07-04T12:33:31;25.90;82.90
20973;DHT22;10645;52.370;13.314;2022-07-04T12:36:02;26.00;83.40
20973;DHT22;10645;52.370;13.314;2022-07-04T12:41:04;25.80;83.40
20973;DHT22;10645;52.370;13.314;2022-07-04T12:46:11;26.60;82.20
20973;DHT22;10645;52.370;13.314;2022-07-04T12:48:38;27.00;79.90
20973;DHT22;10645;52.370;13.314;2022-07-04T12:53:43;27.90;78.80
20973;DHT22;10645;52.370;13.314;2022-07-04T12:56:15;27.20;77.60
20973;DHT22;10645;52.370;13.314;2022-07-04T12:58:52;27.00;79.10
20973;DHT22;10645;52.370;13.314;2022-07-04T13:01:18;27.00;78.10
20973;DHT22;10645;52.370;13.314;2022-07-04T13:03:44;27.00;79.60
20973;DHT22;10645;52.370;13.314;2022-07-04T13:06:10;26.70;79.70
20973;DHT22;10645;52.370;13.314;2022-07-04T13:08:36;26.10;80.00
20973;DHT22;10645;52.370;13.314;2022-07-04T13:11:02;26.30;82.10
20973;DHT22;10645;52.370;13.314;2022-07-04T13:13:47;26.60;78.40
20973;DHT22;10645;52.370;13.314;2022-07-04T13:16:13;26.30;76.90
20973;DHT22;10645;52.370;13.314;2022-07-04T13:18:39;25.80;79.20
20973;DHT22;10645;52.370;13.314;2022-07-04T13:21:06;26.00;79.90
20973;DHT22;10645;52.370;13.314;2022-07-04T13:23:32;26.50;80.80
20973;DHT22;10645;52.370;13.314;2022-07-04T13:25:58;26.40;76.70
20973;DHT22;10645;52.370;13.314;2022-07-04T13:28:24;26.70;77.00
20973;DHT22;10645;52.370;13.314;2022-07-04T13:30:50;26.90;78.40
20973;DHT22;10645;52.370;13.314;2022-07-04T13:33:16;26.80;76.70
20973;DHT22;10645;52.370;13.314;2022-07-04T13:35:42;27.20;77.50
20973;DHT22;10645;52.370;13.314;2022-07-04T13:38:08;27.50;74.10
20973;DHT22;10645;52.370;13.314;2022-07-04T13:40:35;27.90;77.90
20973;DHT22;10645;52.370;13.314;2022-07-04T13:43:01;27.70;72.40
20973;DHT22;10645;52.370;13.314;2022-07-04T13:45:29;27.70;75.20
20973;DHT22;10645;52.370;13.314;2022-07-04T13:47:55;27.80;73.80
20973;DHT22;10645;52.370;13.314;2022-07-04T13:50:22;27.80;72.60
20973;DHT22;10645;52.370;13.314;2022-07-04T13:52:48;27.70;72.50
20973;DHT22;10645;52.370;13.314;2022-07-04T13:55:14;28.10;72.50
20973;DHT22;10645;52.370;13.314;2022-07-04T13:57:40;27.70;72.30
20973;DHT22;10645;52.370;13.314;2022-07-04T14:00:07;27.60;71.10
20973;DHT22;10645;52.370;13.314;2022-07-04T14:02:34;27.60;70.80
20973;DHT22;10645;52.370;13.314;2022-07-04T14:05:00;27.90;71.20
20973;DHT22;10645;52.370;13.314;2022-07-04T14:07:26;27.90;71.20
20973;DHT22;10645;52.370;13.314;2022-07-04T14:09:52;28.10;69.40
20973;DHT22;10645;52.370;13.314;2022-07-04T14:12:19;27.80;70.00
20973;DHT22;10645;52.370;13.314;2022-07-04T14:14:46;27.90;70.40
20973;DHT22;10645;52.370;13.314;2022-07-04T14:17:12;28.00;70.20
20973;DHT22;10645;52.370;13.314;2022-07-04T14:19:38;28.00;69.40
20973;DHT22;10645;52.370;13.314;2022-07-04T14:22:04;27.50;70.10
20973;DHT22;10645;52.370;13.314;2022-07-04T14:24:30;27.40;70.00
20973;DHT22;10645;52.370;13.314;2022-07-04T14:26:56;27.40;71.10
20973;DHT22;10645;52.370;13.314;2022-07-04T14:29:22;27.30;70.40
20973;DHT22;10645;52.370;13.314;2022-07-04T14:31:49;26.90;72.60
20973;DHT22;10645;52.370;13.314;2022-07-04T14:34:17;27.00;69.70
20973;DHT22;10645;52.370;13.314;2022-07-04T14:36:43;27.00;70.70
20973;DHT22;10645;52.370;13.314;2022-07-04T14:39:10;26.00;70.00
20973;DHT22;10645;52.370;13.314;2022-07-04T14:41:36;25.70;72.90
20973;DHT22;10645;52.370;13.314;2022-07-04T14:44:02;25.90;74.60
20973;DHT22;10645;52.370;13.314;2022-07-04T14:46:28;25.80;74.00
20973;DHT22;10645;52.370;13.314;2022-07-04T14:48:56;26.10;71.10
20973;DHT22;10645;52.370;13.314;2022-07-04T14:51:23;26.60;71.70
20973;DHT22;10645;52.370;13.314;2022-07-04T14:53:51;27.10;70.40
20973;DHT22;10645;52.370;13.314;2022-07-04T14:56:17;27.50;68.40
20973;DHT22;10645;52.370;13.314;2022-07-04T14:58:43;27.70;69.50
20973;DHT22;10645;52.370;13.314;2022-07-04T15:01:09;27.90;70.70
20973;DHT22;10645;52.370;13.314;2022-07-04T15:03:35;27.80;70.10
20973;DHT22;10645;52.370;13.314;2022-07-04T15:06:01;28.60;67.20
20973;DHT22;10645;52.370;13.314;2022-07-04T15:08:28;28.80;66.80
20973;DHT22;10645;52.370;13.314;2022-07-04T15:10:54;29.20;63.60
20973;DHT22;10645;52.370;13.314;2022-07-04T15:13:20;30.00;63.60
20973;DHT22;10645;52.370;13.314;2022-07-04T15:15:46;29.80;59.80
20973;DHT22;10645;52.370;13.314;2022-07-04T15:18:12;30.80;61.70
20973;DHT22;10645;52.370;13.314;2022-07-04T15:20:38;30.70;58.90
20973;DHT22;10645;52.370;13.314;2022-07-04T15:23:23;31.40;58.60
20973;DHT22;10645;52.370;13.314;2022-07-04T15:26:08;31.70;58.30
20973;DHT22;10645;52.370;13.314;2022-07-04T15:28:34;31.80;57.10
20973;DHT22;10645;52.370;13.314;2022-07-04T15:31:01;31.40;57.40
20973;DHT22;10645;52.370;13.314;2022-07-04T15:33:27;29.90;58.60
20973;DHT22;10645;52.370;13.314;2022-07-04T15:35:56;28.70;60.20
20973;DHT22;10645;52.370;13.314;2022-07-04T15:38:23;29.30;62.20
20973;DHT22;10645;52.370;13.314;2022-07-04T15:40:49;29.90;61.40
20973;DHT22;10645;52.370;13.314;2022-07-04T15:43:15;29.90;59.20
20973;DHT22;10645;52.370;13.314;2022-07-04T15:45:42;30.60;59.80